sensor_id;sensor_type;location;lat;lon;timestamp;P1;durP1;ratioP1;P2;durP2;ratioP2
68806;SDS011;55800;54.272;18.558;2023-02-15T00:00:31;26.90;;;14.23;;
68806;SDS011;55800;54.272;18.558;2023-02-15T00:03:22;27.00;;;16.48;;
68806;SDS011;55800;54.272;18.558;2023-02-15T00:05:51;26.80;;;16.38;;
68806;SDS011;55800;54.272;18.558;2023-02-15T00:08:20;25.13;;;14.20;;
68806;SDS011;55800;54.272;18.558;2023-02-15T00:13:19;21.90;;;13.33;;
68806;SDS011;55800;54.272;18.558;2023-02-15T00:15:49;29.83;;;17.23;;
68806;SDS011;55800;54.272;18.558;2023-02-15T00:18:19;24.42;;;14.98;;
68806;SDS011;55800;54.272;18.558;2023-02-15T00:20:50;24.77;;;15.25;;
68806;SDS011;55800;54.272;18.558;2023-02-15T00:23:19;21.55;;;14.20;;
68806;SDS011;55800;54.272;18.558;2023-02-15T00:25:49;25.55;;;15.25;;
68806;SDS011;55800;54.272;18.558;2023-02-15T00:28:18;27.80;;;16.38;;
68806;SDS011;55800;54.272;18.558;2023-02-15T00:30:48;24.65;;;14.68;;
68806;SDS011;55800;54.272;18.558;2023-02-15T00:33:18;22.85;;;15.57;;
68806;SDS011;55800;54.272;18.558;2023-02-15T00:35:55;27.33;;;15.52;;
68806;SDS011;55800;54.272;18.558;2023-02-15T00:38:25;25.98;;;17.40;;
68806;SDS011;55800;54.272;18.558;2023-02-15T00:40:56;28.77;;;16.00;;
68806;SDS011;55800;54.272;18.558;2023-02-15T00:43:26;23.27;;;15.50;;
68806;SDS011;55800;54.272;18.558;2023-02-15T00:45:57;25.88;;;15.52;;
68806;SDS011;55800;54.272;18.558;2023-02-15T00:48:27;27.25;;;14.38;;
68806;SDS011;55800;54.272;18.558;2023-02-15T00:50:58;25.10;;;14.93;;
68806;SDS011;55800;54.272;18.558;2023-02-15T00:53:29;23.95;;;14.57;;
68806;SDS011;55800;54.272;18.558;2023-02-15T00:55:59;24.80;;;15.90;;
68806;SDS011;55800;54.272;18.558;2023-02-15T00:58:29;26.10;;;14.95;;
68806;SDS011;55800;54.272;18.558;2023-02-15T01:01:02;27.05;;;14.95;;
68806;SDS011;55800;54.272;18.558;2023-02-15T01:03:33;22.58;;;14.10;;
68806;SDS011;55800;54.272;18.558;2023-02-15T01:06:04;23.60;;;15.38;;
68806;SDS011;55800;54.272;18.558;2023-02-15T01:08:33;26.10;;;15.32;;
68806;SDS011;55800;54.272;18.558;2023-02-15T01:11:04;24.33;;;13.45;;
68806;SDS011;55800;54.272;18.558;2023-02-15T01:13:34;25.08;;;15.05;;
68806;SDS011;55800;54.272;18.558;2023-02-15T01:16:05;24.65;;;13.80;;
68806;SDS011;55800;54.272;18.558;2023-02-15T01:18:35;20.35;;;14.38;;
68806;SDS011;55800;54.272;18.558;2023-02-15T01:21:10;26.88;;;14.27;;
68806;SDS011;55800;54.272;18.558;2023-02-15T01:23:42;27.08;;;14.23;;
68806;SDS011;55800;54.272;18.558;2023-02-15T01:26:13;23.40;;;14.07;;
68806;SDS011;55800;54.272;18.558;2023-02-15T01:28:43;24.35;;;14.43;;
68806;SDS011;55800;54.272;18.558;2023-02-15T01:31:13;27.30;;;15.10;;
68806;SDS011;55800;54.272;18.558;2023-02-15T01:33:44;25.30;;;14.25;;
68806;SDS011;55800;54.272;18.558;2023-02-15T01:36:16;26.33;;;14.52;;
68806;SDS011;55800;54.272;18.558;2023-02-15T01:38:45;23.48;;;14.88;;
68806;SDS011;55800;54.272;18.558;2023-02-15T01:41:15;24.65;;;13.38;;
68806;SDS011;55800;54.272;18.558;2023-02-15T01:43:54;23.98;;;15.43;;
68806;SDS011;55800;54.272;18.558;2023-02-15T01:46:27;27.08;;;14.00;;
68806;SDS011;55800;54.272;18.558;2023-02-15T01:49:02;27.50;;;16.80;;
68806;SDS011;55800;54.272;18.558;2023-02-15T01:51:37;27.33;;;16.10;;
68806;SDS011;55800;54.272;18.558;2023-02-15T01:54:10;30.27;;;16.60;;
68806;SDS011;55800;54.272;18.558;2023-02-15T01:59:19;29.23;;;15.37;;
68806;SDS011;55800;54.272;18.558;2023-02-15T02:01:52;29.40;;;16.70;;
68806;SDS011;55800;54.272;18.558;2023-02-15T02:04:28;32.28;;;18.33;;
68806;SDS011;55800;54.272;18.558;2023-02-15T02:07:03;32.65;;;18.20;;
68806;SDS011;55800;54.272;18.558;2023-02-15T02:09:34;30.75;;;17.25;;
68806;SDS011;55800;54.272;18.558;2023-02-15T02:12:05;33.17;;;17.48;;
68806;SDS011;55800;54.272;18.558;2023-02-15T02:14:35;31.35;;;18.73;;
68806;SDS011;55800;54.272;18.558;2023-02-15T02:17:06;33.08;;;19.67;;
68806;SDS011;55800;54.272;18.558;2023-02-15T02:19:52;29.85;;;17.42;;
68806;SDS011;55800;54.272;18.558;2023-02-15T02:23:09;26.70;;;15.65;;
68806;SDS011;55800;54.272;18.558;2023-02-15T02:26:02;32.22;;;17.10;;
68806;SDS011;55800;54.272;18.558;2023-02-15T02:32:05;29.30;;;18.40;;
68806;SDS011;55800;54.272;18.558;2023-02-15T02:34:56;30.92;;;19.02;;
68806;SDS011;55800;54.272;18.558;2023-02-15T02:37:30;30.40;;;17.73;;
68806;SDS011;55800;54.272;18.558;2023-02-15T02:40:08;28.83;;;15.52;;
68806;SDS011;55800;54.272;18.558;2023-02-15T02:42:44;29.60;;;17.17;;
68806;SDS011;55800;54.272;18.558;2023-02-15T02:45:24;31.58;;;17.00;;
68806;SDS011;55800;54.272;18.558;2023-02-15T02:47:56;31.10;;;17.83;;
68806;SDS011;55800;54.272;18.558;2023-02-15T02:50:32;40.72;;;20.80;;
68806;SDS011;55800;54.272;18.558;2023-02-15T02:53:02;34.17;;;19.52;;
68806;SDS011;55800;54.272;18.558;2023-02-15T02:55:32;34.20;;;20.38;;
68806;SDS011;55800;54.272;18.558;2023-02-15T02:58:09;36.67;;;20.25;;
68806;SDS011;55800;54.272;18.558;2023-02-15T03:00:43;35.25;;;18.77;;
68806;SDS011;55800;54.272;18.558;2023-02-15T03:03:18;41.72;;;20.27;;
68806;SDS011;55800;54.272;18.558;2023-02-15T03:05:56;35.55;;;21.33;;
68806;SDS011;55800;54.272;18.558;2023-02-15T03:08:30;35.90;;;21.73;;
68806;SDS011;55800;54.272;18.558;2023-02-15T03:11:06;33.70;;;19.75;;
68806;SDS011;55800;54.272;18.558;2023-02-15T03:13:36;28.75;;;18.98;;
68806;SDS011;55800;54.272;18.558;2023-02-15T03:16:07;34.53;;;18.67;;
68806;SDS011;55800;54.272;18.558;2023-02-15T03:18:55;36.40;;;21.15;;
68806;SDS011;55800;54.272;18.558;2023-02-15T03:21:32;34.78;;;20.08;;
68806;SDS011;55800;54.272;18.558;2023-02-15T03:24:07;37.13;;;20.45;;
68806;SDS011;55800;54.272;18.558;2023-02-15T03:26:43;32.08;;;18.85;;
68806;SDS011;55800;54.272;18.558;2023-02-15T03:29:16;31.63;;;18.38;;
68806;SDS011;55800;54.272;18.558;2023-02-15T03:31:51;32.08;;;17.63;;
68806;SDS011;55800;54.272;18.558;2023-02-15T03:34:27;31.92;;;19.05;;
68806;SDS011;55800;54.272;18.558;2023-02-15T03:39:34;27.80;;;17.05;;
68806;SDS011;55800;54.272;18.558;2023-02-15T03:42:10;26.60;;;16.15;;
68806;SDS011;55800;54.272;18.558;2023-02-15T03:44:47;28.15;;;16.52;;
68806;SDS011;55800;54.272;18.558;2023-02-15T03:47:20;30.58;;;18.95;;
68806;SDS011;55800;54.272;18.558;2023-02-15T03:49:53;32.50;;;18.15;;
68806;SDS011;55800;54.272;18.558;2023-02-15T03:52:27;32.70;;;20.33;;
68806;SDS011;55800;54.272;18.558;2023-02-15T03:54:58;30.58;;;17.63;;
68806;SDS011;55800;54.272;18.558;2023-02-15T03:57:28;28.85;;;17.63;;
68806;SDS011;55800;54.272;18.558;2023-02-15T04:00:16;27.70;;;16.45;;
68806;SDS011;55800;54.272;18.558;2023-02-15T04:03:07;26.75;;;17.13;;
68806;SDS011;55800;54.272;18.558;2023-02-15T04:05:48;25.85;;;16.35;;
68806;SDS011;55800;54.272;18.558;2023-02-15T04:08:19;28.52;;;16.38;;
68806;SDS011;55800;54.272;18.558;2023-02-15T04:11:09;33.78;;;16.98;;
68806;SDS011;55800;54.272;18.558;2023-02-15T04:13:38;24.92;;;17.27;;
68806;SDS011;55800;54.272;18.558;2023-02-15T04:16:07;29.75;;;17.65;;
68806;SDS011;55800;54.272;18.558;2023-02-15T04:18:38;27.75;;;17.00;;
68806;SDS011;55800;54.272;18.558;2023-02-15T04:21:26;27.33;;;16.95;;
68806;SDS011;55800;54.272;18.558;2023-02-15T04:24:16;28.73;;;16.48;;
68806;SDS011;55800;54.272;18.558;2023-02-15T04:27:03;25.02;;;17.13;;
68806;SDS011;55800;54.272;18.558;2023-02-15T04:29:33;24.88;;;15.48;;
68806;SDS011;55800;54.272;18.558;2023-02-15T04:32:02;29.00;;;15.90;;
68806;SDS011;55800;54.272;18.558;2023-02-15T04:34:33;30.17;;;17.35;;
68806;SDS011;55800;54.272;18.558;2023-02-15T04:37:02;35.30;;;17.42;;
68806;SDS011;55800;54.272;18.558;2023-02-15T04:39:33;30.95;;;16.85;;
68806;SDS011;55800;54.272;18.558;2023-02-15T04:42:03;24.60;;;17.40;;
68806;SDS011;55800;54.272;18.558;2023-02-15T04:44:32;28.05;;;15.90;;
68806;SDS011;55800;54.272;18.558;2023-02-15T04:47:01;25.88;;;15.32;;
68806;SDS011;55800;54.272;18.558;2023-02-15T04:49:30;27.13;;;16.38;;
68806;SDS011;55800;54.272;18.558;2023-02-15T04:52:00;25.33;;;15.13;;
68806;SDS011;55800;54.272;18.558;2023-02-15T04:54:29;21.70;;;15.00;;
68806;SDS011;55800;54.272;18.558;2023-02-15T04:56:59;28.10;;;16.30;;
68806;SDS011;55800;54.272;18.558;2023-02-15T04:59:29;31.33;;;15.40;;
68806;SDS011;55800;54.272;18.558;2023-02-15T05:01:58;28.92;;;16.02;;
68806;SDS011;55800;54.272;18.558;2023-02-15T05:04:28;31.08;;;16.83;;
68806;SDS011;55800;54.272;18.558;2023-02-15T05:06:57;25.90;;;14.63;;
68806;SDS011;55800;54.272;18.558;2023-02-15T05:09:26;26.20;;;14.70;;
68806;SDS011;55800;54.272;18.558;2023-02-15T05:11:56;27.17;;;14.93;;
68806;SDS011;55800;54.272;18.558;2023-02-15T05:14:26;29.40;;;15.30;;
68806;SDS011;55800;54.272;18.558;2023-02-15T05:16:56;24.30;;;14.30;;
68806;SDS011;55800;54.272;18.558;2023-02-15T05:19:27;30.48;;;16.70;;
68806;SDS011;55800;54.272;18.558;2023-02-15T05:21:57;28.10;;;16.20;;
68806;SDS011;55800;54.272;18.558;2023-02-15T05:24:26;29.83;;;15.38;;
68806;SDS011;55800;54.272;18.558;2023-02-15T05:27:13;28.10;;;16.85;;
68806;SDS011;55800;54.272;18.558;2023-02-15T05:30:01;29.02;;;16.45;;
68806;SDS011;55800;54.272;18.558;2023-02-15T05:32:32;29.55;;;18.05;;
68806;SDS011;55800;54.272;18.558;2023-02-15T05:35:02;27.90;;;15.75;;
68806;SDS011;55800;54.272;18.558;2023-02-15T05:37:31;25.15;;;15.82;;
68806;SDS011;55800;54.272;18.558;2023-02-15T05:40:01;30.73;;;18.48;;
68806;SDS011;55800;54.272;18.558;2023-02-15T05:42:30;28.38;;;17.23;;
68806;SDS011;55800;54.272;18.558;2023-02-15T05:44:59;26.92;;;15.32;;
68806;SDS011;55800;54.272;18.558;2023-02-15T05:47:31;34.30;;;19.52;;
68806;SDS011;55800;54.272;18.558;2023-02-15T05:50:01;26.08;;;16.60;;
68806;SDS011;55800;54.272;18.558;2023-02-15T05:52:32;28.13;;;17.35;;
68806;SDS011;55800;54.272;18.558;2023-02-15T05:55:02;32.30;;;16.48;;
68806;SDS011;55800;54.272;18.558;2023-02-15T05:57:31;35.13;;;17.42;;
68806;SDS011;55800;54.272;18.558;2023-02-15T06:00:02;24.92;;;14.73;;
68806;SDS011;55800;54.272;18.558;2023-02-15T06:02:39;26.05;;;16.38;;
68806;SDS011;55800;54.272;18.558;2023-02-15T06:07:38;30.58;;;16.27;;
68806;SDS011;55800;54.272;18.558;2023-02-15T06:10:11;31.60;;;17.38;;
68806;SDS011;55800;54.272;18.558;2023-02-15T06:12:40;31.63;;;18.13;;
68806;SDS011;55800;54.272;18.558;2023-02-15T06:15:11;31.77;;;17.73;;
68806;SDS011;55800;54.272;18.558;2023-02-15T06:17:40;30.05;;;17.95;;
68806;SDS011;55800;54.272;18.558;2023-02-15T06:20:10;29.88;;;14.75;;
68806;SDS011;55800;54.272;18.558;2023-02-15T06:22:40;29.23;;;18.77;;
68806;SDS011;55800;54.272;18.558;2023-02-15T06:25:09;26.65;;;18.38;;
68806;SDS011;55800;54.272;18.558;2023-02-15T06:27:40;32.92;;;17.70;;
68806;SDS011;55800;54.272;18.558;2023-02-15T06:30:12;24.58;;;17.20;;
68806;SDS011;55800;54.272;18.558;2023-02-15T06:32:42;31.02;;;17.15;;
68806;SDS011;55800;54.272;18.558;2023-02-15T06:35:12;30.63;;;17.05;;
68806;SDS011;55800;54.272;18.558;2023-02-15T06:37:41;34.25;;;20.35;;
68806;SDS011;55800;54.272;18.558;2023-02-15T06:40:13;33.92;;;19.73;;
68806;SDS011;55800;54.272;18.558;2023-02-15T06:42:43;37.17;;;19.40;;
68806;SDS011;55800;54.272;18.558;2023-02-15T06:45:14;40.78;;;20.17;;
68806;SDS011;55800;54.272;18.558;2023-02-15T06:47:43;35.65;;;20.92;;
68806;SDS011;55800;54.272;18.558;2023-02-15T06:50:12;38.25;;;22.90;;
68806;SDS011;55800;54.272;18.558;2023-02-15T06:52:42;35.50;;;20.10;;
68806;SDS011;55800;54.272;18.558;2023-02-15T06:55:11;33.03;;;18.77;;
68806;SDS011;55800;54.272;18.558;2023-02-15T06:57:42;28.92;;;20.42;;
68806;SDS011;55800;54.272;18.558;2023-02-15T07:00:12;29.10;;;19.13;;
68806;SDS011;55800;54.272;18.558;2023-02-15T07:02:44;33.80;;;18.63;;
68806;SDS011;55800;54.272;18.558;2023-02-15T07:05:14;32.25;;;17.33;;
68806;SDS011;55800;54.272;18.558;2023-02-15T07:07:43;28.95;;;17.52;;
68806;SDS011;55800;54.272;18.558;2023-02-15T07:10:12;32.40;;;18.35;;
68806;SDS011;55800;54.272;18.558;2023-02-15T07:12:42;27.08;;;17.38;;
68806;SDS011;55800;54.272;18.558;2023-02-15T07:15:13;35.05;;;18.23;;
68806;SDS011;55800;54.272;18.558;2023-02-15T07:17:47;31.70;;;16.90;;
68806;SDS011;55800;54.272;18.558;2023-02-15T07:20:18;30.30;;;18.80;;
68806;SDS011;55800;54.272;18.558;2023-02-15T07:22:49;35.85;;;19.15;;
68806;SDS011;55800;54.272;18.558;2023-02-15T07:27:47;32.15;;;18.05;;
68806;SDS011;55800;54.272;18.558;2023-02-15T07:30:24;31.85;;;18.17;;
68806;SDS011;55800;54.272;18.558;2023-02-15T07:32:54;25.58;;;16.38;;
68806;SDS011;55800;54.272;18.558;2023-02-15T07:35:46;30.00;;;19.23;;
68806;SDS011;55800;54.272;18.558;2023-02-15T07:38:15;27.27;;;17.13;;
68806;SDS011;55800;54.272;18.558;2023-02-15T07:40:45;31.23;;;18.27;;
68806;SDS011;55800;54.272;18.558;2023-02-15T07:43:15;38.15;;;19.83;;
68806;SDS011;55800;54.272;18.558;2023-02-15T07:45:46;29.25;;;16.08;;
68806;SDS011;55800;54.272;18.558;2023-02-15T07:48:15;33.88;;;18.45;;
68806;SDS011;55800;54.272;18.558;2023-02-15T07:50:45;26.88;;;16.90;;
68806;SDS011;55800;54.272;18.558;2023-02-15T07:53:14;27.73;;;14.82;;
68806;SDS011;55800;54.272;18.558;2023-02-15T07:55:43;30.02;;;17.85;;
68806;SDS011;55800;54.272;18.558;2023-02-15T07:58:12;32.00;;;17.67;;
68806;SDS011;55800;54.272;18.558;2023-02-15T08:00:42;29.63;;;16.05;;
68806;SDS011;55800;54.272;18.558;2023-02-15T08:03:29;30.60;;;17.15;;
68806;SDS011;55800;54.272;18.558;2023-02-15T08:05:59;28.90;;;17.17;;
68806;SDS011;55800;54.272;18.558;2023-02-15T08:08:29;28.17;;;16.05;;
68806;SDS011;55800;54.272;18.558;2023-02-15T08:10:59;25.30;;;16.10;;
68806;SDS011;55800;54.272;18.558;2023-02-15T08:13:49;24.23;;;15.07;;
68806;SDS011;55800;54.272;18.558;2023-02-15T08:16:23;28.17;;;15.00;;
68806;SDS011;55800;54.272;18.558;2023-02-15T08:18:55;33.05;;;17.67;;
68806;SDS011;55800;54.272;18.558;2023-02-15T08:21:26;28.23;;;16.05;;
68806;SDS011;55800;54.272;18.558;2023-02-15T08:23:57;24.23;;;14.98;;
68806;SDS011;55800;54.272;18.558;2023-02-15T08:26:27;31.63;;;17.42;;
68806;SDS011;55800;54.272;18.558;2023-02-15T08:28:57;32.33;;;16.83;;
68806;SDS011;55800;54.272;18.558;2023-02-15T08:31:27;32.80;;;16.33;;
68806;SDS011;55800;54.272;18.558;2023-02-15T08:36:29;26.38;;;15.52;;
68806;SDS011;55800;54.272;18.558;2023-02-15T08:39:00;29.60;;;16.13;;
68806;SDS011;55800;54.272;18.558;2023-02-15T08:41:32;29.45;;;16.42;;
68806;SDS011;55800;54.272;18.558;2023-02-15T08:44:03;28.48;;;16.17;;
68806;SDS011;55800;54.272;18.558;2023-02-15T08:46:35;25.13;;;13.80;;
68806;SDS011;55800;54.272;18.558;2023-02-15T08:49:07;24.80;;;14.43;;
68806;SDS011;55800;54.272;18.558;2023-02-15T08:51:37;28.27;;;14.85;;
68806;SDS011;55800;54.272;18.558;2023-02-15T08:54:08;28.13;;;18.35;;
68806;SDS011;55800;54.272;18.558;2023-02-15T08:56:41;30.27;;;16.92;;
68806;SDS011;55800;54.272;18.558;2023-02-15T08:59:12;20.65;;;11.45;;
68806;SDS011;55800;54.272;18.558;2023-02-15T09:01:43;28.25;;;16.33;;
68806;SDS011;55800;54.272;18.558;2023-02-15T09:04:15;26.15;;;14.45;;
68806;SDS011;55800;54.272;18.558;2023-02-15T09:06:46;24.75;;;15.63;;
68806;SDS011;55800;54.272;18.558;2023-02-15T09:09:16;32.95;;;16.52;;
68806;SDS011;55800;54.272;18.558;2023-02-15T09:11:47;28.83;;;16.55;;
68806;SDS011;55800;54.272;18.558;2023-02-15T09:14:25;30.92;;;16.00;;
68806;SDS011;55800;54.272;18.558;2023-02-15T09:16:55;29.55;;;15.75;;
68806;SDS011;55800;54.272;18.558;2023-02-15T09:19:26;27.65;;;15.35;;
68806;SDS011;55800;54.272;18.558;2023-02-15T09:21:56;25.77;;;15.85;;
68806;SDS011;55800;54.272;18.558;2023-02-15T09:24:25;27.83;;;15.25;;
68806;SDS011;55800;54.272;18.558;2023-02-15T09:26:54;31.73;;;16.33;;
68806;SDS011;55800;54.272;18.558;2023-02-15T09:29:23;23.90;;;12.13;;
68806;SDS011;55800;54.272;18.558;2023-02-15T09:31:54;24.60;;;14.55;;
68806;SDS011;55800;54.272;18.558;2023-02-15T09:34:24;22.33;;;14.50;;
68806;SDS011;55800;54.272;18.558;2023-02-15T09:36:55;25.85;;;13.38;;
68806;SDS011;55800;54.272;18.558;2023-02-15T09:39:24;22.88;;;14.20;;
68806;SDS011;55800;54.272;18.558;2023-02-15T09:42:00;26.02;;;14.75;;
68806;SDS011;55800;54.272;18.558;2023-02-15T09:44:57;23.15;;;13.75;;
68806;SDS011;55800;54.272;18.558;2023-02-15T09:50:52;23.67;;;15.23;;
68806;SDS011;55800;54.272;18.558;2023-02-15T09:53:40;32.63;;;15.73;;
68806;SDS011;55800;54.272;18.558;2023-02-15T09:56:28;32.13;;;15.95;;
68806;SDS011;55800;54.272;18.558;2023-02-15T09:59:06;26.33;;;15.38;;
68806;SDS011;55800;54.272;18.558;2023-02-15T10:01:47;25.55;;;15.40;;
68806;SDS011;55800;54.272;18.558;2023-02-15T10:04:30;30.60;;;15.90;;
68806;SDS011;55800;54.272;18.558;2023-02-15T10:07:16;27.42;;;14.93;;
68806;SDS011;55800;54.272;18.558;2023-02-15T10:10:01;22.42;;;10.77;;
68806;SDS011;55800;54.272;18.558;2023-02-15T10:12:46;31.90;;;17.88;;
68806;SDS011;55800;54.272;18.558;2023-02-15T10:15:41;28.15;;;16.23;;
68806;SDS011;55800;54.272;18.558;2023-02-15T10:18:38;24.95;;;15.80;;
68806;SDS011;55800;54.272;18.558;2023-02-15T10:21:35;35.65;;;17.65;;
68806;SDS011;55800;54.272;18.558;2023-02-15T10:24:20;36.15;;;19.45;;
68806;SDS011;55800;54.272;18.558;2023-02-15T10:27:16;31.85;;;16.85;;
68806;SDS011;55800;54.272;18.558;2023-02-15T10:29:52;26.33;;;15.75;;
68806;SDS011;55800;54.272;18.558;2023-02-15T10:32:35;27.30;;;13.95;;
68806;SDS011;55800;54.272;18.558;2023-02-15T10:35:11;27.33;;;17.08;;
68806;SDS011;55800;54.272;18.558;2023-02-15T10:37:54;29.05;;;15.45;;
68806;SDS011;55800;54.272;18.558;2023-02-15T10:40:37;29.67;;;16.58;;
68806;SDS011;55800;54.272;18.558;2023-02-15T10:43:18;31.98;;;16.65;;
68806;SDS011;55800;54.272;18.558;2023-02-15T10:46:02;25.80;;;15.63;;
68806;SDS011;55800;54.272;18.558;2023-02-15T10:48:55;25.35;;;16.70;;
68806;SDS011;55800;54.272;18.558;2023-02-15T10:51:49;33.95;;;17.73;;
68806;SDS011;55800;54.272;18.558;2023-02-15T10:54:29;30.88;;;16.20;;
68806;SDS011;55800;54.272;18.558;2023-02-15T10:57:09;28.15;;;17.27;;
68806;SDS011;55800;54.272;18.558;2023-02-15T10:59:49;32.92;;;18.08;;
68806;SDS011;55800;54.272;18.558;2023-02-15T11:02:37;33.55;;;18.25;;
68806;SDS011;55800;54.272;18.558;2023-02-15T11:05:26;34.00;;;20.77;;
68806;SDS011;55800;54.272;18.558;2023-02-15T11:08:06;36.92;;;21.08;;
68806;SDS011;55800;54.272;18.558;2023-02-15T11:10:38;28.02;;;15.38;;
68806;SDS011;55800;54.272;18.558;2023-02-15T11:13:13;32.47;;;17.02;;
68806;SDS011;55800;54.272;18.558;2023-02-15T11:15:46;36.17;;;19.15;;
68806;SDS011;55800;54.272;18.558;2023-02-15T11:18:23;33.38;;;18.98;;
68806;SDS011;55800;54.272;18.558;2023-02-15T11:20:58;30.70;;;18.58;;
68806;SDS011;55800;54.272;18.558;2023-02-15T11:23:30;35.88;;;20.05;;
68806;SDS011;55800;54.272;18.558;2023-02-15T11:26:04;30.58;;;19.50;;
68806;SDS011;55800;54.272;18.558;2023-02-15T11:28:43;30.88;;;19.85;;
68806;SDS011;55800;54.272;18.558;2023-02-15T11:31:18;30.77;;;17.58;;
68806;SDS011;55800;54.272;18.558;2023-02-15T11:33:51;29.58;;;17.40;;
68806;SDS011;55800;54.272;18.558;2023-02-15T11:36:25;34.63;;;19.02;;
68806;SDS011;55800;54.272;18.558;2023-02-15T11:39:01;31.13;;;20.08;;
68806;SDS011;55800;54.272;18.558;2023-02-15T11:41:34;36.17;;;20.20;;
68806;SDS011;55800;54.272;18.558;2023-02-15T11:44:12;35.38;;;19.60;;
68806;SDS011;55800;54.272;18.558;2023-02-15T11:46:46;41.65;;;21.60;;
68806;SDS011;55800;54.272;18.558;2023-02-15T11:49:20;35.22;;;19.95;;
68806;SDS011;55800;54.272;18.558;2023-02-15T11:51:53;32.08;;;17.60;;
68806;SDS011;55800;54.272;18.558;2023-02-15T11:54:26;35.70;;;19.10;;
68806;SDS011;55800;54.272;18.558;2023-02-15T11:56:59;32.60;;;19.10;;
68806;SDS011;55800;54.272;18.558;2023-02-15T11:59:42;35.28;;;18.35;;
68806;SDS011;55800;54.272;18.558;2023-02-15T12:02:15;36.40;;;18.85;;
68806;SDS011;55800;54.272;18.558;2023-02-15T12:04:48;30.88;;;18.45;;
68806;SDS011;55800;54.272;18.558;2023-02-15T12:07:21;36.58;;;19.58;;
68806;SDS011;55800;54.272;18.558;2023-02-15T12:09:56;32.85;;;18.27;;
68806;SDS011;55800;54.272;18.558;2023-02-15T12:12:35;38.60;;;20.48;;
68806;SDS011;55800;54.272;18.558;2023-02-15T12:15:07;31.70;;;19.67;;
68806;SDS011;55800;54.272;18.558;2023-02-15T12:17:39;36.60;;;18.23;;
68806;SDS011;55800;54.272;18.558;2023-02-15T12:20:24;33.15;;;20.40;;
68806;SDS011;55800;54.272;18.558;2023-02-15T12:22:59;37.05;;;17.15;;
68806;SDS011;55800;54.272;18.558;2023-02-15T12:25:33;30.17;;;18.40;;
68806;SDS011;55800;54.272;18.558;2023-02-15T12:28:22;31.33;;;17.65;;
68806;SDS011;55800;54.272;18.558;2023-02-15T12:30:56;32.45;;;18.33;;
68806;SDS011;55800;54.272;18.558;2023-02-15T12:33:28;32.75;;;18.58;;
68806;SDS011;55800;54.272;18.558;2023-02-15T12:36:01;36.00;;;20.30;;
68806;SDS011;55800;54.272;18.558;2023-02-15T12:38:38;35.05;;;19.52;;
68806;SDS011;55800;54.272;18.558;2023-02-15T12:41:21;30.27;;;20.23;;
68806;SDS011;55800;54.272;18.558;2023-02-15T12:44:02;31.33;;;19.08;;
68806;SDS011;55800;54.272;18.558;2023-02-15T12:46:41;32.95;;;16.85;;
68806;SDS011;55800;54.272;18.558;2023-02-15T12:49:24;28.50;;;16.55;;
68806;SDS011;55800;54.272;18.558;2023-02-15T12:51:54;29.02;;;17.45;;
68806;SDS011;55800;54.272;18.558;2023-02-15T12:54:32;30.90;;;18.08;;
68806;SDS011;55800;54.272;18.558;2023-02-15T12:57:19;32.33;;;18.63;;
68806;SDS011;55800;54.272;18.558;2023-02-15T12:59:53;34.50;;;19.70;;
68806;SDS011;55800;54.272;18.558;2023-02-15T13:02:27;34.10;;;21.55;;
68806;SDS011;55800;54.272;18.558;2023-02-15T13:05:04;32.47;;;20.42;;
68806;SDS011;55800;54.272;18.558;2023-02-15T13:07:44;29.13;;;17.60;;
68806;SDS011;55800;54.272;18.558;2023-02-15T13:10:24;34.65;;;18.48;;
68806;SDS011;55800;54.272;18.558;2023-02-15T13:12:58;30.73;;;18.08;;
68806;SDS011;55800;54.272;18.558;2023-02-15T13:15:32;32.72;;;20.10;;
68806;SDS011;55800;54.272;18.558;2023-02-15T13:18:09;33.60;;;18.15;;
68806;SDS011;55800;54.272;18.558;2023-02-15T13:20:42;37.35;;;20.45;;
68806;SDS011;55800;54.272;18.558;2023-02-15T13:23:20;32.75;;;19.05;;
68806;SDS011;55800;54.272;18.558;2023-02-15T13:25:55;32.50;;;19.52;;
68806;SDS011;55800;54.272;18.558;2023-02-15T13:28:31;37.38;;;19.00;;
68806;SDS011;55800;54.272;18.558;2023-02-15T13:31:11;36.33;;;18.63;;
68806;SDS011;55800;54.272;18.558;2023-02-15T13:33:45;33.65;;;18.77;;
68806;SDS011;55800;54.272;18.558;2023-02-15T13:36:21;32.10;;;20.17;;
68806;SDS011;55800;54.272;18.558;2023-02-15T13:39:04;31.02;;;18.10;;
68806;SDS011;55800;54.272;18.558;2023-02-15T13:41:50;34.72;;;21.05;;
68806;SDS011;55800;54.272;18.558;2023-02-15T13:44:31;34.45;;;20.15;;
68806;SDS011;55800;54.272;18.558;2023-02-15T13:47:21;43.90;;;18.95;;
68806;SDS011;55800;54.272;18.558;2023-02-15T13:50:00;33.17;;;18.60;;
68806;SDS011;55800;54.272;18.558;2023-02-15T13:52:47;32.67;;;19.98;;
68806;SDS011;55800;54.272;18.558;2023-02-15T13:55:26;32.63;;;18.35;;
68806;SDS011;55800;54.272;18.558;2023-02-15T14:01:11;33.45;;;20.00;;
68806;SDS011;55800;54.272;18.558;2023-02-15T14:04:10;31.38;;;20.58;;
68806;SDS011;55800;54.272;18.558;2023-02-15T14:10:02;35.72;;;21.48;;
68806;SDS011;55800;54.272;18.558;2023-02-15T14:12:54;32.00;;;18.88;;
68806;SDS011;55800;54.272;18.558;2023-02-15T14:15:53;35.00;;;18.55;;
68806;SDS011;55800;54.272;18.558;2023-02-15T14:18:29;36.13;;;20.05;;
68806;SDS011;55800;54.272;18.558;2023-02-15T14:21:05;34.85;;;20.42;;
68806;SDS011;55800;54.272;18.558;2023-02-15T14:23:43;37.83;;;20.80;;
68806;SDS011;55800;54.272;18.558;2023-02-15T14:26:27;42.38;;;22.55;;
68806;SDS011;55800;54.272;18.558;2023-02-15T14:29:07;31.67;;;19.10;;
68806;SDS011;55800;54.272;18.558;2023-02-15T14:31:47;37.05;;;21.27;;
68806;SDS011;55800;54.272;18.558;2023-02-15T14:34:22;37.30;;;21.65;;
68806;SDS011;55800;54.272;18.558;2023-02-15T14:36:56;37.30;;;22.35;;
68806;SDS011;55800;54.272;18.558;2023-02-15T14:39:29;37.75;;;23.70;;
68806;SDS011;55800;54.272;18.558;2023-02-15T14:42:23;45.20;;;23.75;;
68806;SDS011;55800;54.272;18.558;2023-02-15T14:45:00;43.15;;;23.65;;
68806;SDS011;55800;54.272;18.558;2023-02-15T14:47:36;39.97;;;22.73;;
68806;SDS011;55800;54.272;18.558;2023-02-15T14:53:20;43.78;;;22.17;;
68806;SDS011;55800;54.272;18.558;2023-02-15T14:56:17;39.08;;;22.90;;
68806;SDS011;55800;54.272;18.558;2023-02-15T14:58:58;46.55;;;24.30;;
68806;SDS011;55800;54.272;18.558;2023-02-15T15:01:50;45.45;;;24.17;;
68806;SDS011;55800;54.272;18.558;2023-02-15T15:04:28;40.30;;;23.17;;
68806;SDS011;55800;54.272;18.558;2023-02-15T15:07:02;45.55;;;25.33;;
68806;SDS011;55800;54.272;18.558;2023-02-15T15:09:37;42.72;;;25.55;;
68806;SDS011;55800;54.272;18.558;2023-02-15T15:12:35;41.58;;;21.60;;
68806;SDS011;55800;54.272;18.558;2023-02-15T15:15:09;47.97;;;23.55;;
68806;SDS011;55800;54.272;18.558;2023-02-15T15:17:57;51.40;;;26.45;;
68806;SDS011;55800;54.272;18.558;2023-02-15T15:20:39;47.42;;;25.45;;
68806;SDS011;55800;54.272;18.558;2023-02-15T15:26:28;50.38;;;28.60;;
68806;SDS011;55800;54.272;18.558;2023-02-15T15:29:05;44.80;;;25.52;;